Time;durP1;ratioP1;P1;durP2;ratioP2;P2;SDS_P1;SDS_P2;PMS_P1;PMS_P2;Temp;Humidity;BMP_temperature;BMP_pressure;BME280_temperature;BME280_humidity;BME280_pressure;Samples;Min_cycle;Max_cycle;Signal;HPM_P1;HPM_P2
2024/01/29 00:02:26;;;;;;;;;10.50;8.00;;;;;8.25;43.67;102595.81;146612;582;47008;-76
2024/01/29 00:05:21;;;;;;;;;7.75;7.00;;;;;8.25;44.40;102601.00;146608;600;47010;-75
2024/01/29 00:08:22;;;;;;;;;12.50;11.50;;;;;8.26;44.22;102597.66;146615;570;46008;-74
2024/01/29 00:11:30;;;;;;;;;9.50;7.00;;;;;8.27;43.73;102611.47;146602;597;47912;-77
2024/01/29 00:14:27;;;;;;;;;10.00;7.25;;;;;8.27;44.31;102609.81;146598;598;47020;-76
2024/01/29 00:17:27;;;;;;;;;12.25;8.50;;;;;8.29;44.22;102612.53;146607;573;47012;-73
2024/01/29 00:20:35;;;;;;;;;11.00;9.50;;;;;8.30;43.85;102619.53;146613;595;46020;-71
2024/01/29 00:23:30;;;;;;;;;10.00;8.75;;;;;8.31;44.39;102621.31;146611;653;46016;-72
2024/01/29 00:26:28;;;;;;;;;10.00;10.00;;;;;8.33;44.49;102623.28;146614;569;46020;-73
2024/01/29 00:29:24;;;;;;;;;11.50;8.25;;;;;8.33;44.62;102623.28;146603;611;46913;-74
2024/01/29 00:32:19;;;;;;;;;10.75;9.00;;;;;8.32;44.64;102626.66;146615;638;46020;-73
2024/01/29 00:35:46;;;;;;;;;8.50;8.50;;;;;8.28;44.04;102627.13;146611;609;47016;-73
2024/01/29 00:38:51;;;;;;;;;10.50;10.00;;;;;6.10;43.74;102241.53;146612;572;47021;-72
2024/01/29 00:41:48;;;;;;;;;9.50;8.75;;;;;8.18;45.05;102623.56;146601;578;47010;-72
2024/01/29 00:44:49;;;;;;;;;12.00;10.75;;;;;8.15;45.51;102616.44;146602;637;46021;-73
2024/01/29 00:48:09;;;;;;;;;13.50;12.00;;;;;8.16;45.75;102610.53;146599;627;47010;-72
2024/01/29 00:51:19;;;;;;;;;15.00;11.75;;;;;8.21;46.00;102605.75;146606;611;46021;-72
2024/01/29 00:54:15;;;;;;;;;13.50;9.75;;;;;8.22;45.88;102603.31;146604;569;46016;-71
2024/01/29 00:57:14;;;;;;;;;11.00;11.00;;;;;8.25;45.89;102594.91;146613;580;46020;-72
2024/01/29 01:00:14;;;;;;;;;11.00;8.00;;;;;8.27;46.37;102594.28;146604;616;46017;-71
2024/01/29 01:03:20;;;;;;;;;;;;;;;;;;;;;
2024/01/29 01:06:20;;;;;;;;;11.25;8.75;;;;;8.24;46.55;102608.63;146607;576;47010;-71
2024/01/29 01:09:16;;;;;;;;;9.25;9.00;;;;;8.22;46.33;102584.31;146610;613;47008;-70
2024/01/29 01:12:12;;;;;;;;;9.00;6.75;;;;;8.21;46.68;102590.25;146608;614;47010;-71
2024/01/29 01:15:24;;;;;;;;;10.75;8.75;;;;;8.20;45.27;102586.78;146600;592;46010;-73
2024/01/29 01:18:22;;;;;;;;;9.00;8.25;;;;;8.18;46.74;102587.38;146611;578;46016;-72
2024/01/29 01:21:23;;;;;;;;;7.50;6.75;;;;;8.15;46.75;102594.88;146612;566;47021;-74
2024/01/29 01:24:16;;;;;;;;;13.75;10.25;;;;;8.09;47.29;102595.22;146608;572;47010;-71
2024/01/29 01:27:16;;;;;;;;;9.00;7.75;;;;;8.12;46.62;102610.09;146606;570;47020;-68
2024/01/29 01:30:13;;;;;;;;;8.50;8.00;;;;;8.14;47.16;102611.16;146608;589;46012;-68
2024/01/29 01:33:09;;;;;;;;;7.75;7.75;;;;;8.12;48.27;102607.50;146614;613;46020;-75
2024/01/29 01:36:03;;;;;;;;;9.00;9.00;;;;;8.11;47.58;102604.03;146609;574;47010;-75
2024/01/29 01:39:06;;;;;;;;;9.00;9.00;;;;;8.12;47.42;102589.41;146611;602;46020;-70
2024/01/29 01:42:02;;;;;;;;;10.00;10.00;;;;;8.15;47.64;102594.88;146609;566;47016;-74
2024/01/29 01:45:03;;;;;;;;;11.75;8.75;;;;;8.17;47.90;102601.09;146604;600;46020;-74
2024/01/29 01:48:12;;;;;;;;;11.50;9.25;;;;;8.21;47.22;102598.00;146609;584;47010;-73
2024/01/29 01:51:13;;;;;;;;;9.75;9.25;;;;;8.20;48.23;102588.44;146613;569;46020;-73
2024/01/29 01:54:39;;;;;;;;;;;;;;;;;;;;;
2024/01/29 01:57:43;;;;;;;;;11.00;9.00;;;;;8.22;48.90;102576.56;146611;596;47011;-74
2024/01/29 02:00:38;;;;;;;;;11.25;9.00;;;;;8.25;48.40;102592.34;146608;570;48010;-71
2024/01/29 02:03:40;;;;;;;;;10.75;10.00;;;;;8.26;48.00;102589.91;146608;593;47020;-74
2024/01/29 02:07:12;;;;;;;;;9.25;9.25;;;;;8.31;47.33;102567.94;146603;636;47012;-69
2024/01/29 02:10:12;;;;;;;;;9.25;8.75;;;;;8.33;47.15;102575.84;146614;581;46008;-70
2024/01/29 02:13:15;;;;;;;;;11.25;9.00;;;;;8.39;46.93;102572.94;146608;592;46016;-67
2024/01/29 02:16:37;;;;;;;;;11.25;9.00;;;;;6.11;46.39;102160.94;146602;590;47032;-73
2024/01/29 02:19:39;;;;;;;;;10.00;8.00;;;;;8.46;47.20;102568.44;146611;573;46016;-73
2024/01/29 02:22:51;;;;;;;;;11.50;8.25;;;;;8.50;47.61;102567.97;146614;597;46021;-69
2024/01/29 02:25:43;;;;;;;;;10.00;7.75;;;;;8.50;47.51;102562.81;146610;564;46010;-69
2024/01/29 02:28:43;;;;;;;;;7.50;6.25;;;;;8.51;47.76;102576.63;146614;576;47010;-68
2024/01/29 02:31:51;;;;;;;;;11.75;9.75;;;;;8.52;46.79;102566.41;146610;582;46016;-70
2024/01/29 02:34:43;;;;;;;;;8.25;7.75;;;;;8.54;47.37;102574.31;146614;608;46021;-72
2024/01/29 02:37:38;;;;;;;;;8.75;7.00;;;;;8.54;47.42;102574.31;146605;598;47012;-73
2024/01/29 02:40:35;;;;;;;;;12.00;10.50;;;;;8.55;47.03;102574.44;146611;589;47008;-75
2024/01/29 02:43:43;;;;;;;;;10.25;8.25;;;;;8.56;48.21;102577.94;146600;607;47011;-74
2024/01/29 02:46:45;;;;;;;;;13.00;11.25;;;;;8.56;48.32;102570.16;146600;572;47020;-74
2024/01/29 02:49:46;;;;;;;;;8.00;7.00;;;;;8.58;47.65;102571.22;146602;583;47017;-74
2024/01/29 02:52:38;;;;;;;;;9.50;7.25;;;;;8.61;47.99;102570.59;146615;653;46020;-73
2024/01/29 02:55:42;;;;;;;;;10.75;10.75;;;;;8.62;48.01;102580.16;146610;692;46016;-73
2024/01/29 02:58:49;;;;;;;;;11.00;10.25;;;;;8.61;48.03;102568.91;146607;609;46008;-80
2024/01/29 03:01:51;;;;;;;;;10.75;9.00;;;;;8.63;48.29;102575.13;146602;566;46012;-82
2024/01/29 03:04:53;;;;;;;;;14.75;12.25;;;;;8.64;48.10;102578.63;146610;644;48020;-81
2024/01/29 03:07:57;;;;;;;;;10.00;9.25;;;;;8.66;48.87;102588.34;146606;596;46010;-72
2024/01/29 03:10:55;;;;;;;;;9.00;8.00;;;;;8.69;48.76;102587.69;146612;653;47008;-72
2024/01/29 03:14:09;;;;;;;;;10.25;10.00;;;;;7.32;47.65;102345.59;146611;579;46016;-69
2024/01/29 03:17:01;;;;;;;;;10.25;9.50;;;;;8.69;48.71;102593.78;146602;571;46008;-72
2024/01/29 03:19:58;;;;;;;;;10.00;9.00;;;;;8.70;48.86;102605.94;146609;707;47012;-74
2024/01/29 03:22:51;;;;;;;;;9.00;9.00;;;;;8.66;49.11;102601.28;146611;583;48008;-74
2024/01/29 03:25:55;;;;;;;;;10.25;9.25;;;;;8.72;49.35;102617.34;146611;563;47010;-75
2024/01/29 03:28:58;;;;;;;;;22.75;19.50;;;;;8.73;50.41;102621.72;146612;638;47008;-74
2024/01/29 03:31:50;;;;;;;;;15.50;14.00;;;;;8.75;50.78;102629.59;146603;606;47016;-74
2024/01/29 03:34:48;;;;;;;;;9.50;9.50;;;;;8.73;51.41;102621.72;146610;588;46021;-73
2024/01/29 03:37:53;;;;;;;;;14.75;13.00;;;;;8.73;52.03;102626.91;146607;591;47012;-72
2024/01/29 03:40:52;;;;;;;;;15.75;14.25;;;;;8.70;52.38;102626.63;146604;623;47020;-73
2024/01/29 03:43:51;;;;;;;;;16.50;16.00;;;;;8.67;51.82;102626.34;146600;583;47010;-73
2024/01/29 03:46:52;;;;;;;;;15.00;12.00;;;;;8.62;52.64;102622.44;146597;587;47008;-72
2024/01/29 03:49:53;;;;;;;;;11.50;11.50;;;;;8.62;53.54;102625.03;146602;583;47017;-72
2024/01/29 03:52:47;;;;;;;;;14.75;12.75;;;;;8.60;53.62;102626.59;146605;565;47008;-75
2024/01/29 03:55:42;;;;;;;;;15.50;14.50;;;;;8.59;53.81;102629.00;146629;572;45855;-75
2024/01/29 03:58:37;;;;;;;;;11.00;11.00;;;;;8.55;52.87;102627.84;146633;602;45020;-72
2024/01/29 04:01:36;;;;;;;;;12.75;10.75;;;;;8.45;52.70;102628.69;146631;584;45856;-71
2024/01/29 04:04:31;;;;;;;;;5.00;2.75;;;;;8.42;53.78;102635.28;146636;590;45021;-72
2024/01/29 04:07:39;;;;;;;;;7.00;5.00;;;;;8.37;53.39;102646.81;146629;607;46016;-71
2024/01/29 04:10:32;;;;;;;;;4.50;3.50;;;;;8.37;56.06;102652.00;146635;582;45008;-71
2024/01/29 04:13:28;;;;;;;;;8.25;8.25;;;;;8.33;58.04;102648.22;146632;590;45909;-69
2024/01/29 04:16:26;;;;;;;;;5.00;5.00;;;;;8.25;57.12;102644.94;146628;580;45027;-70
2024/01/29 04:19:22;;;;;;;;;5.75;4.25;;;;;8.16;56.90;102650.94;146630;564;46010;-69
2024/01/29 04:22:25;;;;;;;;;6.00;5.00;;;;;8.07;57.21;102636.44;146633;591;45008;-70
2024/01/29 04:25:24;;;;;;;;;6.00;5.25;;;;;7.97;57.21;102658.66;146631;610;45915;-69
2024/01/29 04:28:22;;;;;;;;;3.50;3.50;;;;;7.86;59.76;102660.28;146632;567;46010;-68
2024/01/29 04:31:28;;;;;;;;;2.00;2.00;;;;;7.67;61.74;102670.56;146633;571;45010;-69
2024/01/29 04:34:26;;;;;;;;;3.00;2.25;;;;;7.36;63.38;102690.87;146633;651;46010;-70
2024/01/29 04:37:33;;;;;;;;;4.50;4.00;;;;;7.01;65.32;102676.25;146632;575;45024;-72
2024/01/29 04:40:29;;;;;;;;;2.50;2.00;;;;;6.74;67.51;102692.56;146626;663;46913;-74
2024/01/29 04:43:24;;;;;;;;;5.00;3.25;;;;;6.58;69.71;102701.34;146631;600;45029;-70
2024/01/29 04:46:22;;;;;;;;;3.25;3.25;;;;;6.53;68.08;102706.81;146627;618;46008;-73
2024/01/29 04:49:37;;;;;;;;;4.50;4.50;;;;;6.50;69.01;102721.97;146627;604;46012;-69
2024/01/29 04:52:37;;;;;;;;;4.50;4.50;;;;;6.50;67.27;102716.81;146633;571;46008;-71
2024/01/29 04:55:38;;;;;;;;;3.00;3.00;;;;;6.53;67.35;102710.28;146631;639;45915;-69
2024/01/29 04:58:33;;;;;;;;;2.75;2.25;;;;;6.61;65.68;102711.97;146636;595;45020;-71
2024/01/29 05:01:36;;;;;;;;;4.75;3.00;;;;;6.70;65.34;102718.03;146630;647;45911;-71
2024/01/29 05:04:39;;;;;;;;;6.00;5.00;;;;;6.74;68.79;102726.97;146631;705;45021;-72
2024/01/29 05:07:34;;;;;;;;;16.00;11.25;;;;;6.76;67.05;102737.44;146631;675;45010;-73
2024/01/29 05:10:32;;;;;;;;;14.25;10.00;;;;;6.79;66.59;102735.16;146631;570;46021;-72
2024/01/29 05:13:29;;;;;;;;;16.25;12.50;;;;;6.85;66.35;102721.22;146625;566;46017;-73
2024/01/29 05:16:38;;;;;;;;;33.50;29.50;;;;;6.90;64.90;102730.28;146628;638;45020;-73
2024/01/29 05:19:48;;;;;;;;;11.00;9.00;;;;;4.74;64.59;102356.16;146628;609;45017;-72
2024/01/29 05:22:51;;;;;;;;;10.00;10.00;;;;;6.99;66.47;102755.19;146633;571;45020;-73
2024/01/29 05:25:52;;;;;;;;;8.00;6.00;;;;;6.96;66.03;102753.19;146632;627;46010;-74
2024/01/29 05:28:54;;;;;;;;;29.75;27.75;;;;;6.94;68.27;102753.03;146629;730;45026;-74
2024/01/29 05:31:59;;;;;;;;;9.25;9.00;;;;;6.88;66.78;102744.69;146631;634;46012;-73
2024/01/29 05:35:04;;;;;;;;;5.50;5.25;;;;;6.90;66.08;102750.94;146632;698;45021;-70
2024/01/29 05:38:06;;;;;;;;;9.50;8.00;;;;;6.93;66.02;102760.62;146629;737;46010;-72
2024/01/29 05:41:05;;;;;;;;;9.25;9.00;;;;;6.90;70.71;102756.09;146634;573;45008;-70
2024/01/29 05:43:57;;;;;;;;;7.50;7.25;;;;;6.82;70.32;102762.19;146632;574;45910;-74
2024/01/29 05:46:53;;;;;;;;;3.50;3.50;;;;;6.66;72.10;102761.38;146630;574;45020;-73
2024/01/29 05:49:49;;;;;;;;;8.25;6.50;;;;;6.53;73.43;102758.34;146629;706;46008;-71
2024/01/29 05:52:44;;;;;;;;;1.50;1.50;;;;;6.46;70.85;102762.00;146633;617;46020;-69
2024/01/29 05:55:48;;;;;;;;;8.50;6.50;;;;;6.46;70.53;102762.91;146631;564;46911;-70
2024/01/29 05:58:47;;;;;;;;;16.00;14.75;;;;;6.53;71.07;102768.66;146634;597;46020;-70
2024/01/29 06:01:48;;;;;;;;;10.00;8.75;;;;;6.58;69.60;102773.53;146631;614;45912;-70
2024/01/29 06:04:43;;;;;;;;;16.50;15.50;;;;;6.70;70.13;102779.00;146631;637;46021;-74
2024/01/29 06:07:35;;;;;;;;;20.50;19.25;;;;;6.74;68.14;102782.78;146633;677;45016;-71
2024/01/29 06:10:27;;;;;;;;;20.00;17.50;;;;;6.78;67.17;102788.38;146631;640;46020;-71
2024/01/29 06:13:23;;;;;;;;;22.75;20.50;;;;;6.81;66.87;102783.53;146630;565;45016;-74
2024/01/29 06:16:28;;;;;;;;;23.00;21.75;;;;;6.83;67.39;102771.72;146626;663;45911;-71
2024/01/29 06:19:36;;;;;;;;;;;;;;;;;;;;;
2024/01/29 06:22:51;;;;;;;;;34.25;29.25;;;;;6.94;66.12;102778.81;146630;639;45008;-74
2024/01/29 06:26:07;;;;;;;;;30.75;24.25;;;;;6.98;64.74;102777.50;146631;565;45016;-72
2024/01/29 06:29:15;;;;;;;;;30.25;25.25;;;;;7.01;64.20;102789.75;146630;576;46020;-73
2024/01/29 06:32:21;;;;;;;;;50.75;39.00;;;;;7.00;62.87;102787.94;146630;570;45016;-70
2024/01/29 06:35:18;;;;;;;;;46.50;37.25;;;;;6.97;65.33;102787.62;146632;564;45010;-71
2024/01/29 06:38:16;;;;;;;;;31.75;29.75;;;;;6.90;66.11;102791.28;146630;590;45016;-71
2024/01/29 06:41:39;;;;;;;;;32.75;27.75;;;;;4.56;64.96;102400.53;146633;576;45021;-71
2024/01/29 06:44:50;;;;;;;;;29.75;26.75;;;;;6.69;64.21;102790.97;146629;565;46016;-70
2024/01/29 06:47:44;;;;;;;;;36.75;32.25;;;;;6.68;66.75;102789.16;146618;584;45020;-71
2024/01/29 06:50:45;;;;;;;;;41.25;32.75;;;;;6.71;66.36;102792.03;146629;603;45910;-85
2024/01/29 06:53:43;;;;;;;;;27.25;25.25;;;;;6.64;68.17;102780.97;146627;727;45020;-82
2024/01/29 06:56:39;;;;;;;;;27.50;25.75;;;;;6.57;68.35;102779.41;146600;655;47010;-81
2024/01/29 06:59:45;;;;;;;;;25.00;23.25;;;;;6.53;67.29;102773.81;146608;589;46020;-81
2024/01/29 07:02:57;;;;;;;;;43.25;35.50;;;;;3.97;65.09;102314.06;146599;648;46017;-81
2024/01/29 07:06:01;;;;;;;;;59.50;47.50;;;;;6.56;67.56;102768.97;146609;645;46020;-80
2024/01/29 07:08:56;;;;;;;;;46.50;37.50;;;;;6.60;67.51;102772.00;146600;671;46016;-80
2024/01/29 07:11:53;;;;;;;;;36.00;31.75;;;;;6.66;66.60;102771.69;146602;721;46021;-81
2024/01/29 07:14:53;;;;;;;;;37.25;30.50;;;;;6.65;69.86;102780.19;146603;591;46908;-83
2024/01/29 07:17:47;;;;;;;;;18.00;15.75;;;;;6.58;71.31;102780.34;146601;609;47008;-81
2024/01/29 07:20:43;;;;;;;;;16.25;15.75;;;;;6.46;70.16;102780.94;146601;619;47010;-82
2024/01/29 07:23:50;;;;;;;;;16.75;16.75;;;;;6.40;67.62;102777.75;146608;691;46008;-88
2024/01/29 07:26:59;;;;;;;;;23.50;22.00;;;;;6.41;66.77;102789.84;146605;610;46010;-80
2024/01/29 07:30:27;;;;;;;;;24.50;21.50;;;;;3.91;68.75;102370.78;146605;626;46010;-80
2024/01/29 07:33:38;;;;;;;;;37.50;27.00;;;;;6.42;67.85;102799.44;146602;575;46012;-70
2024/01/29 07:36:36;;;;;;;;;30.50;27.00;;;;;6.45;67.42;102797.16;146606;606;48020;-72
2024/01/29 07:39:29;;;;;;;;;25.75;24.50;;;;;6.53;67.34;102792.78;146601;617;46017;-73
2024/01/29 07:42:29;;;;;;;;;25.50;24.25;;;;;6.57;66.20;102792.31;146605;640;47008;-72
2024/01/29 07:45:26;;;;;;;;;30.00;26.50;;;;;6.66;65.34;102789.75;146605;605;46033;-73
2024/01/29 07:48:25;;;;;;;;;36.75;29.00;;;;;6.76;63.73;102801.88;146599;713;47008;-70
2024/01/29 07:51:17;;;;;;;;;38.50;31.00;;;;;6.80;63.84;102793.72;146602;572;47912;-70
2024/01/29 07:54:09;;;;;;;;;43.75;33.25;;;;;6.84;65.68;102812.22;146606;583;46008;-70
2024/01/29 07:57:07;;;;;;;;;21.75;18.75;;;;;6.80;65.71;102815.25;146602;596;47016;-74
2024/01/29 08:00:03;;;;;;;;;27.25;22.50;;;;;6.65;66.29;102813.72;146604;606;48008;-76
2024/01/29 08:03:05;;;;;;;;;23.00;19.25;;;;;6.47;65.28;102808.50;146600;570;47017;-72
2024/01/29 08:06:10;;;;;;;;;18.75;17.75;;;;;6.34;67.44;102813.19;146607;618;46008;-79
2024/01/29 08:09:23;;;;;;;;;19.50;15.50;;;;;6.24;67.04;102818.19;146603;625;47010;-75
2024/01/29 08:12:16;;;;;;;;;23.75;22.00;;;;;6.24;67.19;102818.19;146609;558;46020;-72
2024/01/29 08:15:13;;;;;;;;;18.25;17.00;;;;;6.19;69.80;102827.09;146605;574;46016;-74
2024/01/29 08:18:07;;;;;;;;;17.75;15.50;;;;;6.12;69.58;102819.50;146600;572;46021;-76
2024/01/29 08:21:02;;;;;;;;;15.75;13.00;;;;;6.08;70.71;102822.53;146601;626;47012;-72
2024/01/29 08:23:59;;;;;;;;;15.00;15.00;;;;;6.05;70.39;102823.13;146604;569;47020;-72
2024/01/29 08:26:54;;;;;;;;;17.75;13.50;;;;;5.99;71.16;102838.84;146603;590;46010;-73
2024/01/29 08:29:54;;;;;;;;;16.75;14.75;;;;;4.77;71.37;102627.97;146604;625;46020;-73
2024/01/29 08:32:52;;;;;;;;;23.25;20.50;;;;;5.99;69.05;102836.25;146602;602;47010;-73
2024/01/29 08:36:04;;;;;;;;;21.25;20.25;;;;;6.08;69.43;102840.56;146605;629;47008;-74
2024/01/29 08:39:08;;;;;;;;;16.50;14.00;;;;;6.12;70.44;102842.69;146601;610;46023;-69
2024/01/29 08:42:06;;;;;;;;;20.00;16.75;;;;;6.09;69.41;102837.22;146605;586;47008;-78
2024/01/29 08:45:21;;;;;;;;;22.50;21.75;;;;;2.37;68.63;102176.00;146604;598;46016;-80
2024/01/29 08:48:26;;;;;;;;;20.25;18.00;;;;;6.14;70.33;102828.31;146602;606;46020;-74
2024/01/29 08:51:29;;;;;;;;;22.50;19.75;;;;;6.17;70.11;102829.53;146602;695;46010;-72
2024/01/29 08:54:38;;;;;;;;;17.50;16.75;;;;;6.23;70.32;102842.09;146607;571;46021;-71
2024/01/29 08:57:46;;;;;;;;;17.50;16.25;;;;;6.23;71.22;102835.31;146600;620;47016;-71
2024/01/29 09:00:56;;;;;;;;;;;;;;;;;;;;;
2024/01/29 09:03:57;;;;;;;;;21.50;20.00;;;;;6.37;71.69;102847.00;146602;680;46910;-72
2024/01/29 09:07:02;;;;;;;;;24.00;21.00;;;;;3.62;73.59;102360.06;146604;644;47020;-74
2024/01/29 09:09:58;;;;;;;;;17.50;16.50;;;;;6.22;72.15;102837.72;146602;564;47010;-74
2024/01/29 09:12:53;;;;;;;;;17.75;15.25;;;;;6.18;71.01;102838.16;146607;608;46008;-76
2024/01/29 09:15:58;;;;;;;;;25.75;18.75;;;;;6.23;69.64;102836.94;146602;623;47010;-74
2024/01/29 09:19:10;;;;;;;;;21.75;16.25;;;;;3.97;68.25;102409.03;146600;569;46020;-73
2024/01/29 09:22:09;;;;;;;;;16.75;14.25;;;;;6.42;71.00;102843.25;146598;569;47016;-73
2024/01/29 09:25:11;;;;;;;;;16.00;14.00;;;;;6.41;70.62;102833.66;146606;586;46021;-74
2024/01/29 09:28:08;;;;;;;;;20.25;18.25;;;;;6.39;71.96;102834.28;146604;593;46016;-75
2024/01/29 09:31:24;;;;;;;;;19.25;14.25;;;;;6.33;72.76;102836.25;146606;601;46911;-73
2024/01/29 09:34:24;;;;;;;;;19.00;17.25;;;;;6.23;73.43;102852.41;146602;565;46016;-73
2024/01/29 09:37:19;;;;;;;;;18.75;17.00;;;;;6.16;72.92;102842.22;146606;642;47029;-75
2024/01/29 09:40:40;;;;;;;;;16.00;12.75;;;;;3.32;72.37;102351.69;146601;651;47010;-72
2024/01/29 09:44:00;;;;;;;;;20.25;16.75;;;;;3.41;74.42;102370.62;146602;590;48008;-74
2024/01/29 09:47:10;;;;;;;;;25.50;22.75;;;;;5.98;76.00;102826.72;146602;629;46016;-73
2024/01/29 09:50:09;;;;;;;;;26.75;24.75;;;;;5.92;75.27;102823.47;146599;648;46020;-73
2024/01/29 09:53:17;;;;;;;;;30.00;26.00;;;;;5.89;75.72;102830.88;146601;595;47010;-74
2024/01/29 09:56:18;;;;;;;;;23.50;22.00;;;;;5.90;74.50;102827.56;146631;652;46008;-73
2024/01/29 09:59:15;;;;;;;;;36.50;30.50;;;;;5.98;73.75;102821.56;146630;569;46012;-74
2024/01/29 10:02:21;;;;;;;;;50.75;41.50;;;;;6.10;72.32;102823.56;146633;579;45021;-73
2024/01/29 10:05:36;;;;;;;;;26.50;23.00;;;;;6.27;71.53;102822.75;146630;578;45912;-72
2024/01/29 10:09:00;;;;;;;;;47.50;39.75;;;;;6.52;70.72;102824.47;146635;699;45008;-73
2024/01/29 10:12:05;;;;;;;;;31.00;25.75;;;;;6.71;70.58;102820.41;146631;594;46030;-74
2024/01/29 10:15:26;;;;;;;;;;;;;;;;;;;;;
2024/01/29 10:18:23;;;;;;;;;64.00;52.25;;;;;7.03;71.70;102819.19;146628;580;45908;-73
2024/01/29 10:21:19;;;;;;;;;39.50;34.75;;;;;7.14;71.44;102822.06;146626;602;45020;-73
2024/01/29 10:24:25;;;;;;;;;37.25;31.75;;;;;7.27;70.92;102816.44;146629;597;45911;-73
2024/01/29 10:27:29;;;;;;;;;40.75;35.50;;;;;7.37;70.66;102813.09;146631;569;45020;-72
2024/01/29 10:30:47;;;;;;;;;47.75;37.25;;;;;7.40;69.78;102803.97;146630;571;46011;-73
2024/01/29 10:33:42;;;;;;;;;43.50;35.25;;;;;7.44;71.70;102796.53;146631;707;46010;-73
2024/01/29 10:36:46;;;;;;;;;52.00;43.00;;;;;7.46;70.91;102802.75;146631;684;45911;-73
2024/01/29 10:39:52;;;;;;;;;35.00;31.75;;;;;7.47;69.15;102805.47;146633;577;45010;-75
2024/01/29 10:43:07;;;;;;;;;35.25;32.25;;;;;7.42;71.15;102808.41;146632;582;46016;-73
2024/01/29 10:46:03;;;;;;;;;34.75;30.00;;;;;7.37;70.39;102805.34;146628;570;47020;-73
2024/01/29 10:48:58;;;;;;;;;52.25;39.75;;;;;7.30;70.32;102806.44;146627;590;46010;-76
2024/01/29 10:52:14;;;;;;;;;48.00;37.75;;;;;7.19;70.87;102807.03;146626;612;47020;-74
2024/01/29 10:55:23;;;;;;;;;94.67;82.00;;;;;7.09;72.62;102799.16;146609;747;47010;-74
2024/01/29 10:58:27;;;;;;;;;47.00;38.25;;;;;7.01;73.83;102800.06;146613;592;46020;-74
2024/01/29 11:01:25;;;;;;;;;40.75;31.00;;;;;6.88;74.36;102791.12;146605;648;46016;-73
2024/01/29 11:04:29;;;;;;;;;56.00;45.75;;;;;6.78;74.65;102788.38;146606;678;47008;-75
2024/01/29 11:07:29;;;;;;;;;62.75;48.25;;;;;6.79;74.18;102802.19;146592;580;49909;-74
2024/01/29 11:11:00;;;;;;;;;31.00;27.75;;;;;6.79;72.40;102786.72;146607;612;46050;-74
2024/01/29 11:14:07;;;;;;;;;33.75;27.25;;;;;6.88;73.18;102791.12;146602;581;47013;-75
2024/01/29 12:39:14;;;;;;;;;31.75;26.25;;;;;8.03;70.51;102744.50;146631;566;47023;-71
2024/01/29 12:42:19;;;;;;;;;33.00;28.75;;;;;8.15;67.73;102749.91;146615;639;46018;-72
2024/01/29 12:45:17;;;;;;;;;23.25;21.25;;;;;8.24;67.23;102743.00;146611;608;46020;-72
2024/01/29 12:48:26;;;;;;;;;33.25;31.25;;;;;8.18;65.84;102712.34;146608;621;47017;-72
2024/01/29 12:51:54;;;;;;;;;32.00;30.25;;;;;8.42;66.23;102737.00;146611;575;47008;-74
2024/01/29 12:55:01;;;;;;;;;;;;;;;;;;;;;
2024/01/29 12:58:09;;;;;;;;;44.00;35.75;;;;;8.41;65.85;102731.66;146613;625;46020;-72
2024/01/29 13:01:18;;;;;;;;;50.00;39.50;;;;;8.39;65.78;102751.31;146605;641;47010;-73
2024/01/29 13:04:21;;;;;;;;;51.00;42.25;;;;;8.41;65.54;102757.50;146613;607;46008;-72
2024/01/29 13:07:25;;;;;;;;;52.25;41.75;;;;;8.42;66.81;102759.34;146609;570;46016;-72
2024/01/29 13:10:27;;;;;;;;;45.75;39.00;;;;;8.32;65.95;102745.53;146608;577;47008;-71
2024/01/29 13:13:35;;;;;;;;;43.00;35.25;;;;;8.30;65.72;102747.06;146608;586;48010;-72
2024/01/29 13:16:39;;;;;;;;;52.50;41.75;;;;;8.32;65.68;102749.81;146611;598;47021;-72
2024/01/29 13:19:42;;;;;;;;;76.33;65.00;;;;;8.42;65.87;102754.19;146613;609;47010;-71
2024/01/29 13:22:39;;;;;;;;;55.75;45.25;;;;;8.45;66.05;102751.87;146618;593;47008;-72
2024/01/29 13:25:39;;;;;;;;;62.50;49.25;;;;;8.50;66.19;102751.53;146608;580;46017;-72
2024/01/29 13:28:41;;;;;;;;;70.33;52.67;;;;;8.59;66.56;102740.19;146613;636;47008;-72
2024/01/29 13:31:45;;;;;;;;;53.00;44.00;;;;;8.62;67.14;102738.81;146610;614;46017;-72
2024/01/29 13:34:45;;;;;;;;;50.00;40.75;;;;;8.63;66.92;102743.22;146614;672;46020;-71
2024/01/29 13:37:46;;;;;;;;;72.33;58.67;;;;;8.70;66.81;102749.88;146609;616;47022;-71
2024/01/29 13:40:45;;;;;;;;;67.50;51.25;;;;;8.76;66.59;102738.41;146616;570;47008;-71
2024/01/29 13:44:02;;;;;;;;;60.00;46.50;;;;;8.81;65.37;102743.06;146610;652;46012;-71
2024/01/29 13:47:13;;;;;;;;;52.75;43.00;;;;;8.83;65.54;102750.19;146608;603;47008;-72
2024/01/29 13:50:05;;;;;;;;;57.00;45.50;;;;;8.87;65.41;102751.38;146611;628;46016;-71
2024/01/29 13:53:20;;;;;;;;;59.50;46.50;;;;;8.89;65.70;102750.75;146613;689;46008;-71
2024/01/29 13:56:23;;;;;;;;;43.25;35.75;;;;;8.71;64.51;102718.03;146609;678;46016;-72
2024/01/29 13:59:32;;;;;;;;;45.00;37.25;;;;;8.77;64.65;102735.03;146613;699;46020;-72
2024/01/29 14:02:34;;;;;;;;;47.75;39.50;;;;;8.64;64.85;102734.69;146610;746;46016;-72
2024/01/29 14:05:32;;;;;;;;;39.75;30.25;;;;;8.54;64.36;102727.78;146611;586;46028;-74
2024/01/29 14:08:35;;;;;;;;;41.25;35.75;;;;;8.42;62.71;102720.56;146609;570;46017;-71
2024/01/29 14:11:30;;;;;;;;;42.50;35.50;;;;;8.35;63.44;102734.59;146614;680;46008;-72
2024/01/29 14:14:37;;;;;;;;;52.75;40.25;;;;;7.07;61.88;102514.34;146605;627;47010;-71
2024/01/29 14:17:45;;;;;;;;;44.00;36.00;;;;;8.28;62.62;102725.31;146609;633;46020;-73
2024/01/29 14:20:52;;;;;;;;;42.25;33.50;;;;;8.30;62.14;102726.38;146603;713;47016;-72
2024/01/29 14:23:53;;;;;;;;;42.25;36.00;;;;;8.28;63.43;102724.44;146611;687;46021;-69
2024/01/29 14:27:00;;;;;;;;;35.50;30.00;;;;;8.23;61.92;102720.53;146610;627;47016;-71
2024/01/29 14:30:20;;;;;;;;;24.00;22.50;;;;;8.03;59.96;102698.00;146614;572;46008;-72
2024/01/29 14:33:27;;;;;;;;;26.00;20.75;;;;;8.16;60.29;102720.69;146609;563;48911;-72
2024/01/29 14:36:28;;;;;;;;;25.75;22.75;;;;;8.20;59.59;102715.97;146611;618;46029;-72
2024/01/29 14:39:21;;;;;;;;;44.25;37.00;;;;;8.34;60.44;102723.31;146609;637;46016;-74
2024/01/29 14:42:23;;;;;;;;;40.25;34.50;;;;;8.60;61.42;102731.66;146614;672;46008;-73
2024/01/29 14:45:22;;;;;;;;;28.25;28.25;;;;;8.81;62.01;102732.72;146610;621;46016;-71
2024/01/29 14:48:26;;;;;;;;;45.00;36.00;;;;;8.94;62.28;102739.16;146612;606;47008;-72
2024/01/29 14:51:25;;;;;;;;;26.00;20.50;;;;;8.98;63.09;102740.31;146608;623;46914;-73
2024/01/29 14:54:26;;;;;;;;;41.25;33.00;;;;;8.95;61.67;102734.87;146610;601;46021;-71
2024/01/29 14:57:31;;;;;;;;;17.75;14.75;;;;;8.93;60.72;102729.56;146611;696;46012;-71
2024/01/29 15:00:36;;;;;;;;;59.25;47.00;;;;;8.88;60.07;102740.25;146612;582;46021;-71
2024/01/29 15:03:35;;;;;;;;;52.75;41.50;;;;;8.83;60.32;102744.13;146609;622;47010;-72
2024/01/29 15:06:47;;;;;;;;;;;;;;;;;;;;;
2024/01/29 15:09:50;;;;;;;;;36.00;31.50;;;;;8.72;60.21;102750.88;146607;594;47010;-71
2024/01/29 15:13:16;;;;;;;;;41.50;33.75;;;;;8.65;60.83;102752.00;146613;588;46008;-71
2024/01/29 15:16:17;;;;;;;;;41.00;33.75;;;;;8.60;61.21;102747.19;146608;581;46914;-71
2024/01/29 15:19:21;;;;;;;;;43.25;35.75;;;;;8.56;61.37;102761.50;146611;743;47008;-71
2024/01/29 15:22:34;;;;;;;;;56.00;44.25;;;;;8.50;61.99;102748.03;146609;583;46011;-72
2024/01/29 15:25:42;;;;;;;;;;;;;;;;;;;;;
2024/01/29 15:28:44;;;;;;;;;74.67;58.33;;;;;8.40;63.73;102738.50;146611;591;47016;-72
2024/01/29 15:31:41;;;;;;;;;75.67;65.33;;;;;8.30;63.14;102757.41;146620;601;46021;-70
2024/01/29 15:34:34;;;;;;;;;45.00;36.00;;;;;8.16;64.11;102756.88;146615;682;46016;-71
2024/01/29 15:37:31;;;;;;;;;59.25;46.25;;;;;8.01;63.64;102764.12;146610;592;47020;-73
2024/01/29 15:40:24;;;;;;;;;24.50;20.75;;;;;7.86;62.58;102755.84;146607;583;47010;-72